createdAt,value
2023-02-28T00:01:38.589Z,-0.95
2023-02-28T00:04:04.875Z,-0.93
2023-02-28T00:06:31.079Z,-1.02
2023-02-28T00:08:57.298Z,-1.03
2023-02-28T00:11:23.512Z,-1.04
2023-02-28T00:13:49.758Z,-1.02
2023-02-28T00:16:19.822Z,-0.99
2023-02-28T00:18:46.177Z,-1.09
2023-02-28T00:21:12.387Z,-1.06
2023-02-28T00:23:38.601Z,-1.06
2023-02-28T00:26:04.889Z,-1.04
2023-02-28T00:28:31.105Z,-1.04
2023-02-28T00:30:57.328Z,-1.02
2023-02-28T00:33:23.575Z,-1.05
2023-02-28T00:35:49.946Z,-1.11
2023-02-28T00:38:16.180Z,-1.42
2023-02-28T00:40:42.420Z,-1.97
2023-02-28T00:43:08.626Z,-1.63
2023-02-28T00:45:34.855Z,-1.47
2023-02-28T00:48:01.065Z,-1.36
2023-02-28T00:50:27.473Z,-1.30
2023-02-28T00:52:53.680Z,-1.37
2023-02-28T00:55:19.885Z,-1.44
2023-02-28T00:57:46.089Z,-1.41
2023-02-28T01:00:12.593Z,-1.58
2023-02-28T01:02:38.803Z,-1.67
2023-02-28T01:05:05.216Z,-1.63
2023-02-28T01:07:31.465Z,-1.52
2023-02-28T01:09:57.667Z,-1.54
2023-02-28T01:12:23.879Z,-1.85
2023-02-28T01:14:50.098Z,-1.96
2023-02-28T01:17:16.295Z,-1.77
2023-02-28T01:19:42.526Z,-1.84
2023-02-28T01:22:08.728Z,-1.75
2023-02-28T01:24:34.949Z,-1.67
2023-02-28T01:27:01.154Z,-1.59
2023-02-28T01:29:27.381Z,-1.56
2023-02-28T01:31:53.623Z,-1.53
2023-02-28T01:34:19.845Z,-1.61
2023-02-28T01:36:46.041Z,-1.61
2023-02-28T01:39:12.282Z,-1.60
2023-02-28T01:41:38.480Z,-1.58
2023-02-28T01:44:24.926Z,-1.55
2023-02-28T01:46:51.138Z,-1.57
2023-02-28T01:49:17.387Z,-1.58
2023-02-28T01:51:45.035Z,-1.58
2023-02-28T01:54:11.734Z,-1.80
2023-02-28T01:56:38.487Z,-2.50
2023-02-28T01:59:04.721Z,-2.96
2023-02-28T02:01:31.245Z,-3.62
2023-02-28T02:03:58.767Z,-3.69
2023-02-28T02:06:32.026Z,-3.08
2023-02-28T02:08:58.265Z,-2.72
2023-02-28T02:11:24.473Z,-2.38
2023-02-28T02:14:09.431Z,-2.23
2023-02-28T02:16:39.260Z,-2.10
2023-02-28T02:19:24.357Z,-2.05
2023-02-28T02:21:53.326Z,-1.95
2023-02-28T02:24:37.873Z,-1.91
2023-02-28T02:27:27.379Z,-1.90
2023-02-28T02:30:07.873Z,-1.89
2023-02-28T02:32:46.442Z,-2.00
2023-02-28T02:35:16.976Z,-2.05
2023-02-28T02:37:51.419Z,-1.99
2023-02-28T02:40:21.261Z,-2.13
2023-02-28T02:42:55.732Z,-2.33
2023-02-28T02:45:24.990Z,-2.18
2023-02-28T02:47:51.213Z,-2.07
2023-02-28T02:50:19.217Z,-1.98
2023-02-28T02:52:46.249Z,-1.96
2023-02-28T02:55:12.647Z,-1.97
2023-02-28T02:57:45.285Z,-1.97
2023-02-28T03:00:11.634Z,-1.95
2023-02-28T03:02:38.292Z,-1.93
2023-02-28T03:05:09.518Z,-2.37
2023-02-28T03:07:35.747Z,-2.97
2023-02-28T03:10:01.946Z,-3.33
2023-02-28T03:12:39.888Z,-3.05
2023-02-28T03:15:12.264Z,-2.84
2023-02-28T03:17:55.042Z,-2.60
2023-02-28T03:20:41.872Z,-2.44
2023-02-28T03:23:15.452Z,-2.39
2023-02-28T03:25:48.335Z,-2.58
2023-02-28T03:28:23.400Z,-2.53
2023-02-28T03:30:49.556Z,-2.33
2023-02-28T03:33:16.956Z,-2.60
2023-02-28T03:35:44.199Z,-2.79
2023-02-28T03:38:13.855Z,-2.64
2023-02-28T03:40:40.151Z,-2.51
2023-02-28T03:43:09.532Z,-2.46
2023-02-28T03:45:36.437Z,-2.44
2023-02-28T03:48:08.605Z,-2.52
2023-02-28T03:50:41.497Z,-2.59
2023-02-28T03:53:09.389Z,-2.54
2023-02-28T03:55:37.005Z,-2.47
2023-02-28T03:58:12.714Z,-2.41
2023-02-28T04:00:39.227Z,-2.43
2023-02-28T04:03:05.579Z,-2.39
2023-02-28T04:05:31.769Z,-2.38
2023-02-28T04:08:04.519Z,-2.37
2023-02-28T04:10:30.724Z,-2.38
2023-02-28T04:12:56.943Z,-2.38
2023-02-28T04:15:23.141Z,-2.34
2023-02-28T04:17:49.338Z,-2.31
2023-02-28T04:20:15.564Z,-2.34
2023-02-28T04:22:41.770Z,-2.37
2023-02-28T04:25:08.089Z,-2.70
2023-02-28T04:27:34.368Z,-2.56
2023-02-28T04:30:00.612Z,-3.14
2023-02-28T04:32:26.869Z,-3.66
2023-02-28T04:34:53.130Z,-3.45
2023-02-28T04:37:19.341Z,-3.09
2023-02-28T04:39:45.550Z,-2.89
2023-02-28T04:42:11.770Z,-2.92
2023-02-28T04:44:37.997Z,-2.89
2023-02-28T04:47:04.229Z,-2.86
2023-02-28T04:49:30.448Z,-2.76
2023-02-28T04:51:56.658Z,-2.78
2023-02-28T04:54:22.875Z,-2.79
2023-02-28T04:56:49.076Z,-2.90
2023-02-28T04:59:15.295Z,-2.75
2023-02-28T05:01:41.501Z,-2.63
2023-02-28T05:04:07.705Z,-3.27
2023-02-28T05:06:33.925Z,-4.16
2023-02-28T05:09:00.141Z,-4.49
2023-02-28T05:11:30.835Z,-4.18
2023-02-28T05:13:57.324Z,-4.44
2023-02-28T05:16:23.582Z,-4.59
2023-02-28T05:18:49.849Z,-4.59
2023-02-28T05:21:24.039Z,-4.50
2023-02-28T05:23:50.260Z,-4.47
2023-02-28T05:26:16.455Z,-4.38
2023-02-28T05:28:42.670Z,-4.34
2023-02-28T05:31:10.383Z,-4.05
2023-02-28T05:33:36.578Z,-3.74
2023-02-28T05:36:02.929Z,-3.45
2023-02-28T05:38:29.229Z,-3.30
2023-02-28T05:40:55.463Z,-3.34
2023-02-28T05:43:21.672Z,-3.24
2023-02-28T05:45:47.920Z,-3.21
2023-02-28T05:48:14.170Z,-3.21
2023-02-28T05:50:40.375Z,-3.31
2023-02-28T05:53:06.586Z,-3.29
2023-02-28T05:55:32.790Z,-3.84
2023-02-28T05:57:59.011Z,-3.55
2023-02-28T06:00:25.236Z,-3.35
2023-02-28T06:02:51.439Z,-3.22
2023-02-28T06:05:18.059Z,-3.06
2023-02-28T06:07:44.381Z,-3.02
2023-02-28T06:10:11.030Z,-3.04
2023-02-28T06:12:37.328Z,-2.92
2023-02-28T06:15:03.629Z,-2.89
2023-02-28T06:17:29.835Z,-3.23
2023-02-28T06:19:56.054Z,-3.50
2023-02-28T06:22:22.266Z,-3.27
2023-02-28T06:24:48.466Z,-3.48
2023-02-28T06:27:14.662Z,-3.91
2023-02-28T06:29:40.967Z,-3.47
2023-02-28T06:32:07.301Z,-3.06
2023-02-28T06:34:33.557Z,-3.02
2023-02-28T06:36:59.765Z,-2.81
2023-02-28T06:39:25.977Z,-2.55
2023-02-28T06:41:55.680Z,-3.58
2023-02-28T06:44:22.164Z,-3.48
2023-02-28T06:46:48.830Z,-3.02
2023-02-28T06:49:15.041Z,-3.15
2023-02-28T06:51:41.579Z,-2.86
2023-02-28T06:54:07.903Z,-2.61
2023-02-28T06:56:34.115Z,-2.19
2023-02-28T06:59:00.319Z,-1.71
2023-02-28T07:01:26.573Z,-1.31
2023-02-28T07:03:52.786Z,-0.84
2023-02-28T07:06:22.301Z,-0.25
2023-02-28T07:08:48.509Z,0.16
2023-02-28T07:11:14.715Z,0.81
2023-02-28T07:13:40.903Z,1.06
2023-02-28T07:16:07.690Z,0.75
2023-02-28T07:18:33.923Z,0.48
2023-02-28T07:21:02.186Z,0.83
2023-02-28T07:23:28.378Z,1.39
2023-02-28T07:25:54.596Z,1.36
2023-02-28T07:28:20.813Z,1.33
2023-02-28T07:30:47.028Z,1.27
2023-02-28T07:33:13.246Z,1.84
2023-02-28T07:35:39.460Z,2.19
2023-02-28T07:38:05.670Z,2.52
2023-02-28T07:40:31.884Z,3.01
2023-02-28T07:42:59.461Z,3.32
2023-02-28T07:45:25.675Z,3.73
2023-02-28T07:47:51.891Z,3.82
2023-02-28T07:50:18.099Z,3.60
2023-02-28T07:52:44.294Z,3.41
2023-02-28T07:55:10.519Z,3.67
2023-02-28T07:57:36.728Z,3.64
2023-02-28T08:00:06.405Z,3.78
2023-02-28T08:02:32.603Z,3.51
2023-02-28T08:04:58.908Z,3.43
2023-02-28T08:07:25.146Z,3.26
2023-02-28T08:09:51.379Z,3.35
2023-02-28T08:12:17.586Z,3.18
2023-02-28T08:14:43.803Z,3.28
2023-02-28T08:17:10.244Z,3.13
2023-02-28T08:19:36.451Z,3.10
2023-02-28T08:22:02.666Z,3.36
2023-02-28T08:24:28.879Z,3.47
2023-02-28T08:26:55.484Z,3.55
2023-02-28T08:29:21.706Z,3.48
2023-02-28T08:31:48.054Z,3.44
2023-02-28T08:34:14.779Z,3.37
2023-02-28T08:36:41.033Z,3.22
2023-02-28T08:39:07.437Z,3.16
2023-02-28T08:41:33.812Z,3.41
2023-02-28T08:44:00.042Z,3.35
2023-02-28T08:46:26.258Z,3.40
2023-02-28T08:48:52.815Z,3.46
2023-02-28T08:51:19.033Z,3.29
2023-02-28T08:53:45.258Z,3.33
2023-02-28T08:56:15.071Z,3.73
2023-02-28T08:58:41.305Z,3.62
2023-02-28T09:01:34.068Z,4.05
2023-02-28T09:04:00.506Z,4.04
2023-02-28T09:06:26.965Z,4.34
2023-02-28T09:08:53.285Z,4.46
2023-02-28T09:11:19.577Z,4.59
2023-02-28T09:13:45.986Z,4.76
2023-02-28T09:16:13.072Z,4.88
2023-02-28T09:18:39.312Z,5.00
2023-02-28T09:21:06.178Z,5.29
2023-02-28T09:23:32.379Z,5.27
2023-02-28T09:25:58.615Z,5.25
2023-02-28T09:28:24.833Z,5.18
2023-02-28T09:30:51.916Z,5.12
2023-02-28T09:33:18.236Z,5.12
2023-02-28T09:35:44.485Z,5.42
2023-02-28T09:38:10.915Z,5.62
2023-02-28T09:41:03.251Z,5.21
2023-02-28T09:43:34.443Z,5.33
2023-02-28T09:46:09.540Z,5.29
2023-02-28T09:48:41.231Z,5.06
2023-02-28T09:51:27.741Z,5.07
2023-02-28T09:54:01.377Z,4.93
2023-02-28T09:56:37.121Z,4.97
2023-02-28T09:59:15.553Z,5.00
2023-02-28T10:01:56.626Z,4.91
2023-02-28T10:04:43.608Z,4.96
2023-02-28T10:07:28.713Z,4.97
2023-02-28T10:09:56.270Z,4.99
2023-02-28T10:12:22.481Z,4.93
2023-02-28T10:14:50.028Z,4.93
2023-02-28T10:17:18.130Z,4.72
2023-02-28T10:19:50.514Z,4.86
2023-02-28T10:22:20.616Z,4.81
2023-02-28T10:24:53.337Z,5.04
2023-02-28T10:27:20.306Z,5.13
2023-02-28T10:29:47.262Z,5.00
2023-02-28T10:32:15.130Z,5.03
2023-02-28T10:34:41.399Z,5.17
2023-02-28T10:37:07.790Z,5.17
2023-02-28T10:39:51.193Z,5.09
2023-02-28T10:42:21.215Z,5.27
2023-02-28T10:44:47.451Z,4.88
2023-02-28T10:47:17.491Z,5.13
2023-02-28T10:49:47.912Z,5.05
2023-02-28T10:52:14.120Z,4.99
2023-02-28T10:54:40.318Z,5.00
2023-02-28T10:57:17.240Z,5.09
2023-02-28T10:59:43.438Z,5.17
2023-02-28T11:02:28.447Z,5.22
2023-02-28T11:04:54.731Z,5.04
2023-02-28T11:07:23.214Z,5.16
2023-02-28T11:09:51.222Z,5.18
2023-02-28T11:12:20.806Z,4.93
2023-02-28T11:14:54.285Z,4.91
2023-02-28T11:17:21.712Z,4.97
2023-02-28T11:19:48.977Z,4.94
2023-02-28T11:22:19.231Z,4.96
2023-02-28T11:24:45.702Z,5.09
2023-02-28T11:27:27.143Z,4.87
2023-02-28T11:29:53.357Z,4.86
2023-02-28T11:32:26.552Z,5.10
2023-02-28T11:35:05.172Z,5.03
2023-02-28T11:37:31.571Z,4.90
2023-02-28T11:39:57.794Z,4.96
2023-02-28T11:42:43.341Z,5.15
2023-02-28T11:45:13.272Z,5.17
2023-02-28T11:47:41.668Z,5.13
2023-02-28T11:50:26.692Z,5.25
2023-02-28T11:52:53.938Z,5.06
2023-02-28T11:55:21.744Z,5.23
2023-02-28T11:57:47.905Z,5.32
2023-02-28T12:00:20.503Z,5.24
2023-02-28T12:02:46.730Z,5.32
2023-02-28T12:05:13.079Z,5.34
2023-02-28T12:07:39.254Z,5.41
2023-02-28T12:10:05.481Z,5.54
2023-02-28T12:12:37.627Z,5.47
2023-02-28T12:15:06.537Z,5.57
2023-02-28T12:17:35.729Z,5.66
2023-02-28T12:20:04.713Z,5.58
2023-02-28T12:22:40.064Z,5.68
2023-02-28T12:25:22.443Z,5.82
2023-02-28T12:27:49.058Z,5.64
2023-02-28T12:30:15.254Z,5.36
2023-02-28T12:32:52.386Z,5.63
2023-02-28T12:35:29.979Z,5.75
2023-02-28T12:38:13.436Z,5.58
2023-02-28T12:40:44.476Z,5.63
2023-02-28T12:43:10.674Z,5.66
2023-02-28T12:45:45.369Z,5.76
2023-02-28T12:48:16.156Z,5.67
2023-02-28T12:50:42.368Z,5.56
2023-02-28T12:53:29.167Z,5.62
2023-02-28T12:56:04.677Z,5.85
2023-02-28T12:58:34.979Z,5.87
2023-02-28T13:01:20.072Z,5.89
2023-02-28T13:04:05.251Z,5.72
2023-02-28T13:06:51.714Z,5.81
2023-02-28T13:09:17.999Z,5.99
2023-02-28T13:11:45.121Z,5.91
2023-02-28T13:14:27.604Z,5.96
2023-02-28T13:16:58.081Z,5.92
2023-02-28T13:19:24.761Z,5.77
2023-02-28T13:21:51.001Z,5.61
2023-02-28T13:24:36.014Z,5.72
2023-02-28T13:27:02.192Z,5.85
2023-02-28T13:29:29.219Z,5.85
2023-02-28T13:32:04.611Z,6.00
2023-02-28T13:34:30.835Z,6.03
2023-02-28T13:37:16.053Z,5.90
2023-02-28T13:39:42.209Z,6.09
2023-02-28T13:42:27.330Z,5.99
2023-02-28T13:44:59.351Z,6.12
2023-02-28T13:47:28.462Z,6.14
2023-02-28T13:49:54.670Z,5.98
2023-02-28T13:52:21.707Z,5.85
2023-02-28T13:54:58.802Z,5.82
2023-02-28T13:57:37.041Z,5.86
2023-02-28T14:00:09.526Z,5.84
2023-02-28T14:02:42.666Z,5.74
2023-02-28T14:07:49.401Z,5.66
2023-02-28T14:10:26.620Z,5.64
2023-02-28T14:12:59.011Z,5.69
2023-02-28T14:15:31.390Z,5.86
2023-02-28T14:17:57.605Z,5.83
2023-02-28T14:20:23.883Z,6.00
2023-02-28T14:22:53.678Z,5.72
2023-02-28T14:25:25.492Z,5.73
2023-02-28T14:28:11.101Z,5.73
2023-02-28T14:30:55.927Z,6.01
2023-02-28T14:33:23.894Z,5.93
2023-02-28T14:36:11.256Z,5.82
2023-02-28T14:38:47.604Z,5.70
2023-02-28T14:41:15.980Z,5.63
2023-02-28T14:43:48.659Z,5.55
2023-02-28T14:46:14.867Z,5.57
2023-02-28T14:48:41.092Z,5.54
2023-02-28T14:51:07.305Z,5.48
2023-02-28T14:53:36.269Z,5.52
2023-02-28T14:56:02.481Z,5.65
2023-02-28T14:58:29.496Z,5.71
2023-02-28T15:00:56.428Z,5.72
2023-02-28T15:03:35.649Z,5.68
2023-02-28T15:06:04.526Z,5.70
2023-02-28T15:08:30.852Z,5.66
2023-02-28T15:10:58.336Z,5.68
2023-02-28T15:13:25.157Z,5.66
2023-02-28T15:16:02.244Z,5.54
2023-02-28T15:18:49.118Z,5.44
2023-02-28T15:21:22.033Z,5.45
2023-02-28T15:23:52.663Z,5.55
2023-02-28T15:26:20.462Z,5.51
2023-02-28T15:28:46.699Z,5.45
2023-02-28T15:31:27.670Z,5.39
2023-02-28T15:33:54.676Z,5.42
2023-02-28T15:36:20.876Z,5.37
2023-02-28T15:38:47.088Z,5.34
2023-02-28T15:41:24.369Z,5.40
2023-02-28T15:44:12.229Z,5.39
2023-02-28T15:46:38.437Z,5.21
2023-02-28T15:49:04.688Z,5.20
2023-02-28T15:51:34.573Z,5.21
2023-02-28T15:54:01.505Z,5.20
2023-02-28T15:56:31.705Z,5.13
2023-02-28T15:58:58.555Z,5.10
2023-02-28T16:01:34.535Z,5.07
2023-02-28T16:04:04.216Z,5.05
2023-02-28T16:06:37.311Z,5.00
2023-02-28T16:09:03.768Z,4.93
2023-02-28T16:11:30.279Z,4.88
2023-02-28T16:13:56.974Z,4.79
2023-02-28T16:16:23.763Z,4.57
2023-02-28T16:18:50.030Z,4.35
2023-02-28T16:21:16.298Z,4.23
2023-02-28T16:23:42.890Z,4.11
2023-02-28T16:26:09.316Z,3.97
2023-02-28T16:28:36.040Z,3.85
2023-02-28T16:31:02.541Z,3.68
2023-02-28T16:33:29.096Z,3.54
2023-02-28T16:35:55.349Z,3.41
2023-02-28T16:38:21.577Z,3.32
2023-02-28T16:40:47.801Z,3.25
2023-02-28T16:43:18.157Z,3.17
2023-02-28T16:45:44.422Z,3.13
2023-02-28T16:48:14.407Z,3.00
2023-02-28T16:50:40.619Z,2.87
2023-02-28T16:53:06.829Z,2.70
2023-02-28T16:55:33.051Z,2.60
2023-02-28T16:57:59.983Z,2.40
2023-02-28T17:00:26.648Z,2.41
2023-02-28T17:02:53.026Z,2.29
2023-02-28T17:05:19.326Z,1.96
2023-02-28T17:07:45.530Z,1.68
2023-02-28T17:10:18.849Z,1.95
2023-02-28T17:12:45.046Z,2.07
2023-02-28T17:15:11.998Z,2.13
2023-02-28T17:17:38.263Z,2.09
2023-02-28T17:20:04.710Z,1.87
2023-02-28T17:22:30.929Z,1.93
2023-02-28T17:24:57.140Z,1.98
2023-02-28T17:27:23.356Z,1.83
2023-02-28T17:29:49.562Z,1.71
2023-02-28T17:32:18.363Z,1.65
2023-02-28T17:34:44.939Z,1.64
2023-02-28T17:37:11.161Z,1.60
2023-02-28T17:39:37.396Z,1.51
2023-02-28T17:42:03.607Z,1.43
2023-02-28T17:44:29.817Z,1.55
2023-02-28T17:46:56.134Z,1.51
2023-02-28T17:49:22.515Z,1.42
2023-02-28T17:51:48.808Z,1.26
2023-02-28T17:54:15.026Z,1.32
2023-02-28T17:56:41.292Z,1.29
2023-02-28T17:59:08.978Z,1.23
2023-02-28T18:01:35.285Z,1.27
2023-02-28T18:04:01.539Z,1.19
2023-02-28T18:06:41.012Z,1.19
2023-02-28T18:09:07.229Z,1.17
2023-02-28T18:11:33.450Z,1.25
2023-02-28T18:13:59.647Z,1.15
2023-02-28T18:16:25.924Z,0.76
2023-02-28T18:18:52.187Z,0.07
2023-02-28T18:21:18.419Z,-0.03
2023-02-28T18:23:44.919Z,-0.09
2023-02-28T18:26:11.147Z,-0.03
2023-02-28T18:28:37.354Z,0.59
2023-02-28T18:31:07.187Z,0.82
2023-02-28T18:33:33.425Z,0.69
2023-02-28T18:35:59.669Z,0.28
2023-02-28T18:38:25.874Z,0.46
2023-02-28T18:40:52.766Z,0.38
2023-02-28T18:43:18.971Z,0.53
2023-02-28T18:45:45.188Z,0.57
2023-02-28T18:48:11.686Z,0.66
2023-02-28T18:50:38.117Z,0.56
2023-02-28T18:53:04.333Z,0.62
2023-02-28T18:55:33.514Z,0.59
2023-02-28T18:57:59.867Z,0.65
2023-02-28T19:00:26.124Z,0.56
2023-02-28T19:02:52.387Z,0.55
2023-02-28T19:05:18.696Z,0.41
2023-02-28T19:07:45.165Z,0.39
2023-02-28T19:10:11.465Z,0.36
2023-02-28T19:12:37.742Z,0.26
2023-02-28T19:15:04.426Z,-0.34
2023-02-28T19:17:30.647Z,-0.13
2023-02-28T19:19:56.856Z,0.13
2023-02-28T19:22:23.086Z,0.23
2023-02-28T19:24:49.873Z,0.28
2023-02-28T19:27:16.097Z,0.34
2023-02-28T19:29:42.311Z,0.33
2023-02-28T19:32:08.619Z,0.31
2023-02-28T19:34:34.892Z,0.30
2023-02-28T19:37:01.125Z,0.32
2023-02-28T19:39:27.339Z,0.10
2023-02-28T19:41:53.568Z,-0.02
2023-02-28T19:44:19.781Z,-0.01
2023-02-28T19:46:46.004Z,-0.03
2023-02-28T19:49:12.215Z,0.05
2023-02-28T19:51:38.444Z,-0.19
2023-02-28T19:54:04.690Z,-0.36
2023-02-28T19:56:31.164Z,-0.49
2023-02-28T19:58:57.635Z,-0.27
2023-02-28T20:01:23.998Z,-0.09
2023-02-28T20:03:50.346Z,-0.07
2023-02-28T20:06:16.546Z,-0.26
2023-02-28T20:08:42.779Z,-0.17
2023-02-28T20:11:10.024Z,-0.41
2023-02-28T20:13:36.295Z,-0.48
2023-02-28T20:16:02.668Z,-0.59
2023-02-28T20:18:28.973Z,-0.72
2023-02-28T20:20:55.185Z,-0.59
2023-02-28T20:23:21.399Z,-0.94
2023-02-28T20:25:47.629Z,-0.89
2023-02-28T20:28:13.842Z,-0.59
2023-02-28T20:30:40.069Z,-0.43
2023-02-28T20:33:06.337Z,-0.42
2023-02-28T20:35:32.599Z,-0.37
2023-02-28T20:37:58.832Z,-0.47
2023-02-28T20:40:25.032Z,-0.77
2023-02-28T20:42:51.252Z,-0.78
2023-02-28T20:45:17.469Z,-0.54
2023-02-28T20:47:43.685Z,-0.42
2023-02-28T20:50:10.393Z,-0.84
2023-02-28T20:52:36.610Z,-1.31
2023-02-28T20:55:02.850Z,-1.43
2023-02-28T20:57:29.420Z,-1.29
2023-02-28T20:59:55.637Z,-0.97
2023-02-28T21:02:21.906Z,-0.76
2023-02-28T21:04:48.118Z,-0.60
2023-02-28T21:07:14.323Z,-0.74
2023-02-28T21:09:40.591Z,-0.67
2023-02-28T21:12:06.803Z,-1.11
2023-02-28T21:14:33.043Z,-1.36
2023-02-28T21:16:59.266Z,-1.47
2023-02-28T21:19:25.493Z,-1.44
2023-02-28T21:21:51.700Z,-1.14
2023-02-28T21:24:18.469Z,-1.04
2023-02-28T21:26:44.868Z,-1.01
2023-02-28T21:29:11.224Z,-0.93
2023-02-28T21:31:37.505Z,-0.92
2023-02-28T21:34:04.421Z,-0.94
2023-02-28T21:36:31.671Z,-1.02
2023-02-28T21:38:59.142Z,-1.06
2023-02-28T21:41:25.468Z,-0.91
2023-02-28T21:43:51.901Z,-0.99
2023-02-28T21:46:18.870Z,-1.05
2023-02-28T21:48:45.185Z,-0.96
2023-02-28T21:51:12.267Z,-0.74
2023-02-28T21:53:38.681Z,-0.72
2023-02-28T21:56:05.951Z,-0.73
2023-02-28T21:58:32.173Z,-0.67
2023-02-28T22:01:14.510Z,-0.69
2023-02-28T22:03:40.788Z,-0.67
2023-02-28T22:06:11.007Z,-0.82
2023-02-28T22:08:37.228Z,-0.87
2023-02-28T22:11:03.448Z,-0.79
2023-02-28T22:13:29.690Z,-0.76
2023-02-28T22:15:55.930Z,-0.94
2023-02-28T22:18:22.162Z,-0.98
2023-02-28T22:20:53.449Z,-1.37
2023-02-28T22:23:19.758Z,-1.23
2023-02-28T22:25:45.973Z,-1.08
2023-02-28T22:28:12.198Z,-1.16
2023-02-28T22:30:38.413Z,-1.62
2023-02-28T22:33:04.632Z,-1.75
2023-02-28T22:35:30.874Z,-1.64
2023-02-28T22:37:57.108Z,-1.58
2023-02-28T22:40:23.324Z,-1.52
2023-02-28T22:42:49.541Z,-1.37
2023-02-28T22:45:15.758Z,-1.43
2023-02-28T22:47:41.982Z,-1.38
2023-02-28T22:50:08.502Z,-1.57
2023-02-28T22:52:34.712Z,-1.76
2023-02-28T22:55:00.927Z,-1.77
2023-02-28T22:57:27.127Z,-1.59
2023-02-28T22:59:53.346Z,-1.62
2023-02-28T23:02:19.560Z,-1.71
2023-02-28T23:04:45.781Z,-1.54
2023-02-28T23:07:13.145Z,-1.37
2023-02-28T23:09:39.356Z,-1.30
2023-02-28T23:12:05.652Z,-1.43
2023-02-28T23:14:31.963Z,-1.34
2023-02-28T23:16:58.180Z,-1.47
2023-02-28T23:19:25.406Z,-1.66
2023-02-28T23:21:51.626Z,-1.90
2023-02-28T23:24:18.464Z,-1.98
2023-02-28T23:26:45.426Z,-1.59
2023-02-28T23:29:12.309Z,-1.61
2023-02-28T23:31:38.890Z,-1.87
2023-02-28T23:34:05.145Z,-1.93
2023-02-28T23:36:31.665Z,-1.88
2023-02-28T23:38:58.053Z,-1.64
2023-02-28T23:41:24.264Z,-1.45
2023-02-28T23:43:51.157Z,-1.33
2023-02-28T23:46:17.423Z,-1.26
2023-02-28T23:48:44.074Z,-1.30
2023-02-28T23:51:11.177Z,-1.53
2023-02-28T23:53:37.822Z,-1.59
2023-02-28T23:56:04.591Z,-1.57
2023-02-28T23:58:30.813Z,-1.67
